createdAt,value
2023-03-23T15:58:50.208Z,100356.56
2023-03-23T16:01:21.287Z,100364.72
2023-03-23T16:03:57.199Z,100367.88
2023-03-23T16:06:26.706Z,100364.91
2023-03-23T16:08:56.041Z,100360.47
2023-03-23T16:11:25.909Z,100360.88
2023-03-23T16:13:54.381Z,100365.22
2023-03-23T16:16:28.380Z,100362.22
2023-03-23T16:18:56.281Z,100356.56
2023-03-23T16:21:23.989Z,100362.28
2023-03-23T16:23:51.531Z,100371.38
2023-03-23T16:26:19.367Z,100364.62
2023-03-23T16:28:47.038Z,100364.62
2023-03-23T16:31:18.091Z,100369.41
2023-03-23T16:33:46.090Z,100363.97
2023-03-23T16:36:14.231Z,100380.56
2023-03-23T16:38:49.804Z,100379.47
2023-03-23T16:41:19.847Z,100382.91
2023-03-23T16:43:47.413Z,100385.31
2023-03-23T16:46:15.079Z,100376.25
2023-03-23T16:48:43.176Z,100382.19
2023-03-23T16:51:11.398Z,100381.09
2023-03-23T16:53:39.033Z,100384.44
2023-03-23T16:56:06.980Z,100383.25
2023-03-23T16:58:34.505Z,100381.88
2023-03-23T17:01:02.872Z,100392.63
2023-03-23T17:03:31.069Z,100388.38
2023-03-23T17:06:00.136Z,100393.19
2023-03-23T17:08:27.956Z,100395.72
2023-03-23T17:10:56.059Z,100398.09
2023-03-23T17:13:25.405Z,100398.19
2023-03-23T17:15:55.038Z,100399.47
2023-03-23T17:18:24.518Z,100392.09
2023-03-23T17:20:55.395Z,100393.91
2023-03-23T17:23:24.351Z,100406.06
2023-03-23T17:25:52.153Z,100388.59
2023-03-23T17:28:21.029Z,100400.41
2023-03-23T17:30:49.110Z,100396.22
2023-03-23T17:33:17.028Z,100401.12
2023-03-23T17:35:46.851Z,100410.47
2023-03-23T17:38:15.066Z,100412.00
2023-03-23T17:40:42.616Z,100412.72
2023-03-23T17:43:10.514Z,100417.56
2023-03-23T17:45:38.770Z,100416.31
2023-03-23T17:48:08.075Z,100417.47
2023-03-23T17:50:36.662Z,100416.06
2023-03-23T17:53:04.787Z,100412.25
2023-03-23T17:55:32.662Z,100410.44
2023-03-23T17:58:00.606Z,100421.88
2023-03-23T18:00:28.491Z,100414.91
2023-03-23T18:02:56.796Z,100417.84
2023-03-23T18:05:24.743Z,100420.06
2023-03-23T18:07:52.313Z,100427.44
2023-03-23T18:10:20.896Z,100426.03
2023-03-23T18:12:51.234Z,100425.91
2023-03-23T18:15:19.335Z,100427.59
2023-03-23T18:17:48.378Z,100433.06
2023-03-23T18:20:16.563Z,100433.37
2023-03-23T18:22:44.363Z,100421.41
2023-03-23T18:25:13.328Z,100424.44
2023-03-23T18:27:41.580Z,100425.69
2023-03-23T18:30:10.496Z,100422.44
2023-03-23T18:32:39.835Z,100422.44
2023-03-23T18:35:09.796Z,100423.19
2023-03-23T18:37:41.697Z,100427.63
2023-03-23T18:40:11.251Z,100430.25
2023-03-23T18:42:40.940Z,100432.84
2023-03-23T18:45:09.652Z,100431.94
2023-03-23T18:47:38.744Z,100437.63
2023-03-23T18:50:08.978Z,100425.91
2023-03-23T18:52:37.930Z,100431.16
2023-03-23T18:55:06.059Z,100436.38
2023-03-23T18:57:34.062Z,100428.25
2023-03-23T19:00:02.316Z,100432.50
2023-03-23T19:02:31.037Z,100426.38
2023-03-23T19:04:59.455Z,100416.00
2023-03-23T19:07:29.647Z,100412.59
2023-03-23T19:10:06.015Z,100415.59
2023-03-23T19:12:34.253Z,100421.16
2023-03-23T19:15:02.292Z,100420.31
2023-03-23T19:17:30.330Z,100421.94
2023-03-23T19:19:58.488Z,100433.31
2023-03-23T19:22:26.096Z,100428.72
2023-03-23T19:24:53.673Z,100436.53
2023-03-23T19:27:21.976Z,100438.34
2023-03-23T19:29:49.618Z,100435.12
2023-03-23T19:32:17.224Z,100439.34
2023-03-23T19:34:50.785Z,100438.34
2023-03-23T19:37:19.996Z,100433.91
2023-03-23T19:39:48.172Z,100441.66
2023-03-23T19:42:18.458Z,100427.09
2023-03-23T19:44:48.481Z,100428.91
2023-03-23T19:47:17.031Z,100430.50
2023-03-23T19:49:45.095Z,100431.62
2023-03-23T19:52:15.003Z,100438.84
2023-03-23T19:54:44.274Z,100441.38
2023-03-23T19:57:12.341Z,100441.63
2023-03-23T19:59:40.287Z,100441.72
2023-03-23T20:02:11.618Z,100440.50
2023-03-23T20:04:40.439Z,100434.28
2023-03-23T20:07:09.964Z,100438.69
2023-03-23T20:09:38.907Z,100437.16
2023-03-23T20:12:07.601Z,100445.59
2023-03-23T20:14:37.405Z,100444.16
2023-03-23T20:17:06.010Z,100451.81
2023-03-23T20:19:36.626Z,100451.56
2023-03-23T20:22:05.925Z,100447.84
2023-03-23T20:24:34.436Z,100444.69
2023-03-23T20:27:03.922Z,100441.50
2023-03-23T20:29:33.381Z,100443.69
2023-03-23T20:32:01.912Z,100456.28
2023-03-23T20:34:30.759Z,100455.91
2023-03-23T20:36:59.869Z,100459.47
2023-03-23T20:39:30.714Z,100455.91
2023-03-23T20:42:03.441Z,100454.72
2023-03-23T20:44:35.389Z,100466.97
2023-03-23T20:47:03.868Z,100472.62
2023-03-23T20:49:33.506Z,100464.88
2023-03-23T20:52:01.889Z,100463.16
2023-03-23T20:54:30.878Z,100463.81
2023-03-23T20:56:59.723Z,100463.56
2023-03-23T20:59:27.953Z,100474.03
2023-03-23T21:01:55.937Z,100471.78
2023-03-23T21:04:27.395Z,100466.50
2023-03-23T21:06:56.075Z,100466.44
2023-03-23T21:09:25.287Z,100462.25
2023-03-23T21:11:53.581Z,100456.56
2023-03-23T21:14:21.655Z,100459.06
2023-03-23T21:16:49.733Z,100459.47
2023-03-23T21:19:19.367Z,100462.41
2023-03-23T21:21:55.763Z,100459.19
2023-03-23T21:24:28.792Z,100455.62
2023-03-23T21:26:59.198Z,100460.16
2023-03-23T21:29:27.554Z,100454.28
2023-03-23T21:32:07.799Z,100454.19
2023-03-23T21:34:37.349Z,100453.13
2023-03-23T21:37:04.982Z,100455.62
2023-03-23T21:39:33.666Z,100459.94
2023-03-23T21:42:04.306Z,100458.25
2023-03-23T21:44:34.935Z,100458.59
2023-03-23T21:47:03.096Z,100455.00
2023-03-23T21:49:31.569Z,100460.37
2023-03-23T21:51:59.158Z,100461.28
2023-03-23T21:54:30.129Z,100445.78
2023-03-23T21:56:58.761Z,100454.41
2023-03-23T21:59:27.170Z,100454.06
2023-03-23T22:01:58.067Z,100451.69
2023-03-23T22:04:29.062Z,100449.75
2023-03-23T22:06:56.934Z,100450.28
2023-03-23T22:09:24.556Z,100451.06
2023-03-23T22:11:52.500Z,100437.28
2023-03-23T22:14:20.414Z,100447.13
2023-03-23T22:16:47.996Z,100446.00
2023-03-23T22:19:16.162Z,100445.81
2023-03-23T22:21:44.077Z,100441.41
2023-03-23T22:24:11.885Z,100441.19
2023-03-23T22:26:39.995Z,100444.03
2023-03-23T22:29:07.694Z,100449.59
2023-03-23T22:31:39.589Z,100438.78
2023-03-23T22:34:07.604Z,100439.22
2023-03-23T22:36:35.187Z,100438.53
2023-03-23T22:39:03.696Z,100436.78
2023-03-23T22:41:34.450Z,100432.66
2023-03-23T22:44:02.095Z,100422.91
2023-03-23T22:46:30.125Z,100425.25
2023-03-23T22:48:58.284Z,100423.13
2023-03-23T22:51:26.489Z,100426.31
2023-03-23T22:53:55.140Z,100429.75
2023-03-23T22:56:24.875Z,100428.62
2023-03-23T22:58:53.133Z,100430.19
2023-03-23T23:01:22.679Z,100434.19
2023-03-23T23:03:50.803Z,100428.81
2023-03-23T23:06:20.027Z,100426.13
2023-03-23T23:08:48.491Z,100431.50
2023-03-23T23:11:18.068Z,100436.97
2023-03-23T23:13:46.227Z,100426.84
2023-03-23T23:16:17.231Z,100440.84
2023-03-23T23:18:47.630Z,100436.56
2023-03-23T23:21:18.163Z,100434.06
2023-03-23T23:23:46.638Z,100438.38
2023-03-23T23:26:15.972Z,100442.00
2023-03-23T23:28:45.422Z,100443.91
2023-03-23T23:31:26.615Z,100432.56
2023-03-23T23:33:57.042Z,100429.34
2023-03-23T23:36:28.215Z,100429.28
2023-03-23T23:38:57.326Z,100427.72
2023-03-23T23:41:25.815Z,100439.88
2023-03-23T23:43:54.040Z,100435.38
2023-03-23T23:46:21.763Z,100443.22
2023-03-23T23:48:49.815Z,100439.69
2023-03-23T23:51:17.676Z,100444.69
2023-03-23T23:53:46.587Z,100445.78
2023-03-23T23:56:14.750Z,100451.38
2023-03-23T23:58:42.400Z,100455.03
